sensor_id;sensor_type;location;lat;lon;timestamp;P1;durP1;ratioP1;P2;durP2;ratioP2
33730;SDS011;22931;48.636;9.000;2023-12-20T00:04:32;0.50;;;0.50;;
33730;SDS011;22931;48.636;9.000;2023-12-20T00:10:01;0.60;;;0.60;;
33730;SDS011;22931;48.636;9.000;2023-12-20T00:15:26;0.60;;;0.60;;
33730;SDS011;22931;48.636;9.000;2023-12-20T00:20:45;0.60;;;0.60;;
33730;SDS011;22931;48.636;9.000;2023-12-20T00:26:02;0.50;;;0.50;;
33730;SDS011;22931;48.636;9.000;2023-12-20T00:31:32;0.50;;;0.50;;
33730;SDS011;22931;48.636;9.000;2023-12-20T00:36:51;0.55;;;0.55;;
33730;SDS011;22931;48.636;9.000;2023-12-20T00:41:59;0.50;;;0.50;;
33730;SDS011;22931;48.636;9.000;2023-12-20T00:53:02;0.73;;;0.65;;
33730;SDS011;22931;48.636;9.000;2023-12-20T01:04:00;0.63;;;0.63;;
33730;SDS011;22931;48.636;9.000;2023-12-20T01:14:56;0.65;;;0.65;;
33730;SDS011;22931;48.636;9.000;2023-12-20T01:20:04;1.02;;;0.60;;
33730;SDS011;22931;48.636;9.000;2023-12-20T01:25:38;0.52;;;0.52;;
33730;SDS011;22931;48.636;9.000;2023-12-20T01:30:58;0.80;;;0.70;;
33730;SDS011;22931;48.636;9.000;2023-12-20T01:36:06;0.60;;;0.60;;
33730;SDS011;22931;48.636;9.000;2023-12-20T01:41:56;0.60;;;0.60;;
33730;SDS011;22931;48.636;9.000;2023-12-20T01:47:04;0.40;;;0.40;;
33730;SDS011;22931;48.636;9.000;2023-12-20T01:52:44;0.60;;;0.60;;
33730;SDS011;22931;48.636;9.000;2023-12-20T01:57:55;0.60;;;0.60;;
33730;SDS011;22931;48.636;9.000;2023-12-20T02:03:04;0.50;;;0.50;;
33730;SDS011;22931;48.636;9.000;2023-12-20T02:08:54;0.40;;;0.40;;
33730;SDS011;22931;48.636;9.000;2023-12-20T02:14:04;0.45;;;0.45;;
33730;SDS011;22931;48.636;9.000;2023-12-20T02:31:03;0.50;;;0.50;;
33730;SDS011;22931;48.636;9.000;2023-12-20T02:36:57;0.60;;;0.60;;
33730;SDS011;22931;48.636;9.000;2023-12-20T02:42:04;0.40;;;0.40;;
33730;SDS011;22931;48.636;9.000;2023-12-20T02:47:59;0.75;;;0.75;;
33730;SDS011;22931;48.636;9.000;2023-12-20T02:53:06;0.50;;;0.50;;
33730;SDS011;22931;48.636;9.000;2023-12-20T02:58:30;0.47;;;0.47;;
33730;SDS011;22931;48.636;9.000;2023-12-20T03:04:00;0.30;;;0.30;;
33730;SDS011;22931;48.636;9.000;2023-12-20T03:09:27;0.30;;;0.30;;
33730;SDS011;22931;48.636;9.000;2023-12-20T03:15:16;0.60;;;0.60;;
33730;SDS011;22931;48.636;9.000;2023-12-20T03:20:52;0.30;;;0.30;;
33730;SDS011;22931;48.636;9.000;2023-12-20T03:26:02;0.40;;;0.40;;
33730;SDS011;22931;48.636;9.000;2023-12-20T03:31:21;0.40;;;0.40;;
33730;SDS011;22931;48.636;9.000;2023-12-20T03:37:05;0.57;;;0.57;;
33730;SDS011;22931;48.636;9.000;2023-12-20T03:43:00;0.38;;;0.38;;
33730;SDS011;22931;48.636;9.000;2023-12-20T03:48:53;0.40;;;0.40;;
33730;SDS011;22931;48.636;9.000;2023-12-20T04:00:03;0.30;;;0.30;;
33730;SDS011;22931;48.636;9.000;2023-12-20T04:05:36;0.40;;;0.40;;
33730;SDS011;22931;48.636;9.000;2023-12-20T04:11:02;0.30;;;0.30;;
33730;SDS011;22931;48.636;9.000;2023-12-20T04:21:59;0.30;;;0.30;;
33730;SDS011;22931;48.636;9.000;2023-12-20T04:27:07;0.55;;;0.50;;
33730;SDS011;22931;48.636;9.000;2023-12-20T04:33:02;0.30;;;0.30;;
33730;SDS011;22931;48.636;9.000;2023-12-20T04:38:38;0.30;;;0.30;;
33730;SDS011;22931;48.636;9.000;2023-12-20T04:44:04;0.40;;;0.40;;
33730;SDS011;22931;48.636;9.000;2023-12-20T04:55:42;0.30;;;0.30;;
33730;SDS011;22931;48.636;9.000;2023-12-20T05:01:03;0.30;;;0.30;;
33730;SDS011;22931;48.636;9.000;2023-12-20T05:18:00;0.80;;;0.80;;
33730;SDS011;22931;48.636;9.000;2023-12-20T05:28:59;0.45;;;0.45;;
33730;SDS011;22931;48.636;9.000;2023-12-20T05:34:06;0.88;;;0.70;;
33730;SDS011;22931;48.636;9.000;2023-12-20T05:39:43;0.40;;;0.40;;
33730;SDS011;22931;48.636;9.000;2023-12-20T05:44:56;0.30;;;0.30;;
33730;SDS011;22931;48.636;9.000;2023-12-20T05:50:04;0.43;;;0.43;;
33730;SDS011;22931;48.636;9.000;2023-12-20T06:01:06;0.40;;;0.40;;
33730;SDS011;22931;48.636;9.000;2023-12-20T06:06:56;0.90;;;0.90;;
33730;SDS011;22931;48.636;9.000;2023-12-20T06:12:07;0.70;;;0.70;;
33730;SDS011;22931;48.636;9.000;2023-12-20T06:18:02;0.50;;;0.50;;
33730;SDS011;22931;48.636;9.000;2023-12-20T06:23:12;0.65;;;0.65;;
33730;SDS011;22931;48.636;9.000;2023-12-20T06:28:22;0.55;;;0.55;;
33730;SDS011;22931;48.636;9.000;2023-12-20T06:52:11;3.90;;;0.98;;
33730;SDS011;22931;48.636;9.000;2023-12-20T06:58:25;0.95;;;0.88;;
33730;SDS011;22931;48.636;9.000;2023-12-20T07:11:08;0.50;;;0.50;;
33730;SDS011;22931;48.636;9.000;2023-12-20T07:16:44;0.70;;;0.70;;
33730;SDS011;22931;48.636;9.000;2023-12-20T07:24:04;1.02;;;0.65;;
33730;SDS011;22931;48.636;9.000;2023-12-20T07:39:46;0.82;;;0.60;;
33730;SDS011;22931;48.636;9.000;2023-12-20T07:45:46;0.43;;;0.43;;
33730;SDS011;22931;48.636;9.000;2023-12-20T08:00:25;1.08;;;0.70;;
33730;SDS011;22931;48.636;9.000;2023-12-20T08:32:17;1.20;;;1.10;;
33730;SDS011;22931;48.636;9.000;2023-12-20T08:38:02;1.20;;;1.10;;
33730;SDS011;22931;48.636;9.000;2023-12-20T08:44:03;0.80;;;0.80;;
33730;SDS011;22931;48.636;9.000;2023-12-20T08:49:50;1.15;;;1.05;;
33730;SDS011;22931;48.636;9.000;2023-12-20T08:55:37;0.60;;;0.60;;
33730;SDS011;22931;48.636;9.000;2023-12-20T09:02:16;0.70;;;0.70;;
33730;SDS011;22931;48.636;9.000;2023-12-20T09:08:05;1.70;;;0.75;;
33730;SDS011;22931;48.636;9.000;2023-12-20T09:13:29;0.93;;;0.85;;
33730;SDS011;22931;48.636;9.000;2023-12-20T09:19:25;1.77;;;1.20;;
33730;SDS011;22931;48.636;9.000;2023-12-20T09:25:02;2.35;;;1.08;;
33730;SDS011;22931;48.636;9.000;2023-12-20T09:30:25;3.10;;;1.33;;
33730;SDS011;22931;48.636;9.000;2023-12-20T09:35:50;0.75;;;0.75;;
33730;SDS011;22931;48.636;9.000;2023-12-20T09:41:02;1.65;;;1.15;;
33730;SDS011;22931;48.636;9.000;2023-12-20T09:46:19;1.20;;;1.10;;
33730;SDS011;22931;48.636;9.000;2023-12-20T09:51:47;1.55;;;1.08;;
33730;SDS011;22931;48.636;9.000;2023-12-20T09:57:09;1.27;;;0.93;;
33730;SDS011;22931;48.636;9.000;2023-12-20T10:02:25;2.22;;;1.25;;
33730;SDS011;22931;48.636;9.000;2023-12-20T10:07:41;6.63;;;1.25;;
33730;SDS011;22931;48.636;9.000;2023-12-20T10:13:03;1.02;;;1.00;;
33730;SDS011;22931;48.636;9.000;2023-12-20T10:18:31;3.80;;;1.30;;
33730;SDS011;22931;48.636;9.000;2023-12-20T10:23:44;1.95;;;1.00;;
33730;SDS011;22931;48.636;9.000;2023-12-20T10:29:01;3.60;;;1.05;;
33730;SDS011;22931;48.636;9.000;2023-12-20T10:34:22;3.33;;;1.10;;
33730;SDS011;22931;48.636;9.000;2023-12-20T10:39:31;1.90;;;0.70;;
33730;SDS011;22931;48.636;9.000;2023-12-20T10:44:44;1.95;;;1.02;;
33730;SDS011;22931;48.636;9.000;2023-12-20T10:55:35;5.97;;;1.20;;
33730;SDS011;22931;48.636;9.000;2023-12-20T11:01:06;4.18;;;1.95;;
33730;SDS011;22931;48.636;9.000;2023-12-20T11:12:47;2.13;;;1.20;;
33730;SDS011;22931;48.636;9.000;2023-12-20T11:18:12;0.70;;;0.70;;
33730;SDS011;22931;48.636;9.000;2023-12-20T11:23:40;2.72;;;1.00;;
33730;SDS011;22931;48.636;9.000;2023-12-20T11:29:32;1.80;;;1.10;;
33730;SDS011;22931;48.636;9.000;2023-12-20T11:35:00;3.75;;;1.67;;
33730;SDS011;22931;48.636;9.000;2023-12-20T11:40:27;5.53;;;2.22;;
33730;SDS011;22931;48.636;9.000;2023-12-20T11:45:57;6.95;;;2.90;;
33730;SDS011;22931;48.636;9.000;2023-12-20T11:51:25;1.90;;;1.48;;
33730;SDS011;22931;48.636;9.000;2023-12-20T11:56:33;2.90;;;1.67;;
33730;SDS011;22931;48.636;9.000;2023-12-20T12:07:33;2.23;;;1.30;;
33730;SDS011;22931;48.636;9.000;2023-12-20T12:13:00;4.00;;;1.48;;
33730;SDS011;22931;48.636;9.000;2023-12-20T12:30:00;2.88;;;0.80;;
33730;SDS011;22931;48.636;9.000;2023-12-20T12:35:47;1.88;;;1.10;;
33730;SDS011;22931;48.636;9.000;2023-12-20T12:41:25;2.75;;;1.52;;
33730;SDS011;22931;48.636;9.000;2023-12-20T12:46:54;2.60;;;1.15;;
33730;SDS011;22931;48.636;9.000;2023-12-20T12:52:02;2.60;;;1.00;;
33730;SDS011;22931;48.636;9.000;2023-12-20T12:57:22;1.98;;;1.45;;
33730;SDS011;22931;48.636;9.000;2023-12-20T13:09:03;3.72;;;1.30;;
33730;SDS011;22931;48.636;9.000;2023-12-20T13:14:23;2.22;;;1.00;;
33730;SDS011;22931;48.636;9.000;2023-12-20T13:20:13;2.00;;;0.85;;
33730;SDS011;22931;48.636;9.000;2023-12-20T13:26:08;7.63;;;1.40;;
33730;SDS011;22931;48.636;9.000;2023-12-20T13:32:09;4.25;;;1.17;;
33730;SDS011;22931;48.636;9.000;2023-12-20T14:10:46;3.42;;;1.15;;
33730;SDS011;22931;48.636;9.000;2023-12-20T14:17:09;2.53;;;1.38;;
33730;SDS011;22931;48.636;9.000;2023-12-20T14:23:21;2.60;;;1.10;;
33730;SDS011;22931;48.636;9.000;2023-12-20T14:29:01;1.77;;;1.17;;
33730;SDS011;22931;48.636;9.000;2023-12-20T14:46:37;2.75;;;1.27;;
33730;SDS011;22931;48.636;9.000;2023-12-20T14:52:16;2.00;;;1.10;;
33730;SDS011;22931;48.636;9.000;2023-12-20T14:58:11;2.55;;;1.40;;
33730;SDS011;22931;48.636;9.000;2023-12-20T15:03:50;2.83;;;1.42;;
33730;SDS011;22931;48.636;9.000;2023-12-20T15:09:03;3.92;;;1.38;;
33730;SDS011;22931;48.636;9.000;2023-12-20T15:14:36;2.85;;;1.60;;
33730;SDS011;22931;48.636;9.000;2023-12-20T15:25:46;4.07;;;2.00;;
33730;SDS011;22931;48.636;9.000;2023-12-20T15:31:08;3.77;;;1.60;;
33730;SDS011;22931;48.636;9.000;2023-12-20T15:42:14;2.80;;;1.27;;
33730;SDS011;22931;48.636;9.000;2023-12-20T16:36:14;2.20;;;1.40;;
33730;SDS011;22931;48.636;9.000;2023-12-20T18:34:08;2.45;;;1.77;;
33730;SDS011;22931;48.636;9.000;2023-12-20T18:52:38;3.58;;;1.98;;
33730;SDS011;22931;48.636;9.000;2023-12-20T18:58:37;5.95;;;2.70;;
33730;SDS011;22931;48.636;9.000;2023-12-20T19:04:50;5.20;;;2.08;;
33730;SDS011;22931;48.636;9.000;2023-12-20T19:11:02;3.45;;;2.08;;
33730;SDS011;22931;48.636;9.000;2023-12-20T19:16:51;5.30;;;1.80;;
33730;SDS011;22931;48.636;9.000;2023-12-20T19:22:45;2.15;;;1.73;;
33730;SDS011;22931;48.636;9.000;2023-12-20T19:28:42;2.83;;;1.40;;
33730;SDS011;22931;48.636;9.000;2023-12-20T19:35:16;2.72;;;1.50;;
33730;SDS011;22931;48.636;9.000;2023-12-20T19:47:48;5.88;;;1.75;;
33730;SDS011;22931;48.636;9.000;2023-12-20T19:54:23;5.07;;;1.83;;
33730;SDS011;22931;48.636;9.000;2023-12-20T21:22:19;2.30;;;1.40;;
33730;SDS011;22931;48.636;9.000;2023-12-20T21:35:49;0.85;;;0.82;;
33730;SDS011;22931;48.636;9.000;2023-12-20T23:18:02;1.92;;;1.13;;
33730;SDS011;22931;48.636;9.000;2023-12-20T23:35:04;0.77;;;0.77;;
33730;SDS011;22931;48.636;9.000;2023-12-20T23:46:06;1.13;;;0.95;;
33730;SDS011;22931;48.636;9.000;2023-12-20T23:57:09;0.70;;;0.70;;
